Terminal Aerodrome Forecast
Issued by NWS

Home | Current Version | Previous Version | Text Only | Print | Product List | Glossary On
Versions: 1 2 3 4 5 6 7 8 9 10 11 12 13 14 15 16 17 18 19 20 21
000
FTUS41 KBGM 281120
TAFRME
TAF
KRME 281120Z 2812/2912 VRB04KT P6SM SCT025 OVC040
     FM281500 29008KT P6SM BKN040
     FM281800 30012KT P6SM SCT045
     FM290000 VRB03KT P6SM SKC=

USA.gov is the U.S. government's official web portal to all federal, state and local government web resources and services.